Shamrock, Oklahoma
Current Conditions -  °F | °C
As of 11:55 AM on Tuesday 21 Oct 2014 (Local Time) from KCUH Reporting Station
Scattered Clouds Scattered Clouds  
Wind Chill: 77°   Ceiling: Unl
Heat Index: 79°   Visibility: 10mi
Dew Point: 66°   Wind: 0mph
Humidity: 69%   Direction: NA
Pressure: 30.11"   Gusts: NA
Location:  35.91°N, 96.58°W
Report Text: KCUH 211655Z AUTO 00000KT 10SM SCT002 25/19 A3011 RMK AO2
Loading
Personal Weather Stations






























Interactive Weather Map
Tropical Storm Tracking
New forecast layout! Learn more

10-Day Weather Forecast

Advertisements
Track Severe Weather on mobile